sensor_id;sensor_type;location;lat;lon;timestamp;P1;durP1;ratioP1;P2;durP2;ratioP2
9848;SDS011;4963;51.444;6.528;2022-09-13T00:01:08;6.63;;;5.90;;
9848;SDS011;4963;51.444;6.528;2022-09-13T00:03:35;10.32;;;7.30;;
9848;SDS011;4963;51.444;6.528;2022-09-13T00:06:06;6.68;;;6.07;;
9848;SDS011;4963;51.444;6.528;2022-09-13T00:08:33;6.07;;;5.47;;
9848;SDS011;4963;51.444;6.528;2022-09-13T00:11:00;6.95;;;6.13;;
9848;SDS011;4963;51.444;6.528;2022-09-13T00:13:27;6.80;;;6.10;;
9848;SDS011;4963;51.444;6.528;2022-09-13T00:15:55;9.45;;;6.07;;
9848;SDS011;4963;51.444;6.528;2022-09-13T00:18:25;6.93;;;6.03;;
9848;SDS011;4963;51.444;6.528;2022-09-13T00:21:01;6.30;;;5.70;;
9848;SDS011;4963;51.444;6.528;2022-09-13T00:23:29;5.88;;;5.28;;
9848;SDS011;4963;51.444;6.528;2022-09-13T00:26:01;7.97;;;6.22;;
9848;SDS011;4963;51.444;6.528;2022-09-13T00:28:29;5.85;;;5.20;;
9848;SDS011;4963;51.444;6.528;2022-09-13T00:30:59;5.85;;;5.32;;
9848;SDS011;4963;51.444;6.528;2022-09-13T00:33:26;6.75;;;5.80;;
9848;SDS011;4963;51.444;6.528;2022-09-13T00:35:53;6.70;;;5.70;;
9848;SDS011;4963;51.444;6.528;2022-09-13T00:38:20;6.93;;;5.60;;
9848;SDS011;4963;51.444;6.528;2022-09-13T00:40:47;9.20;;;5.60;;
9848;SDS011;4963;51.444;6.528;2022-09-13T00:43:16;6.30;;;5.05;;
9848;SDS011;4963;51.444;6.528;2022-09-13T00:45:44;7.28;;;5.47;;
9848;SDS011;4963;51.444;6.528;2022-09-13T00:48:14;7.97;;;5.40;;
9848;SDS011;4963;51.444;6.528;2022-09-13T00:50:46;6.50;;;5.32;;
9848;SDS011;4963;51.444;6.528;2022-09-13T00:53:16;5.60;;;5.10;;
9848;SDS011;4963;51.444;6.528;2022-09-13T00:55:49;6.28;;;4.95;;
9848;SDS011;4963;51.444;6.528;2022-09-13T00:58:20;5.75;;;5.15;;
9848;SDS011;4963;51.444;6.528;2022-09-13T01:00:50;5.93;;;5.35;;
9848;SDS011;4963;51.444;6.528;2022-09-13T01:03:19;5.93;;;5.32;;
9848;SDS011;4963;51.444;6.528;2022-09-13T01:05:50;5.40;;;4.90;;
9848;SDS011;4963;51.444;6.528;2022-09-13T01:08:20;7.43;;;5.00;;
9848;SDS011;4963;51.444;6.528;2022-09-13T01:10:47;5.55;;;5.05;;
9848;SDS011;4963;51.444;6.528;2022-09-13T01:13:17;5.10;;;4.60;;
9848;SDS011;4963;51.444;6.528;2022-09-13T01:15:45;10.23;;;5.63;;
9848;SDS011;4963;51.444;6.528;2022-09-13T01:18:13;7.32;;;5.65;;
9848;SDS011;4963;51.444;6.528;2022-09-13T01:20:47;5.80;;;5.10;;
9848;SDS011;4963;51.444;6.528;2022-09-13T01:23:38;7.10;;;5.68;;
9848;SDS011;4963;51.444;6.528;2022-09-13T01:32:17;7.03;;;5.45;;
9848;SDS011;4963;51.444;6.528;2022-09-13T01:34:56;6.60;;;5.35;;
9848;SDS011;4963;51.444;6.528;2022-09-13T01:40:23;6.13;;;5.18;;
9848;SDS011;4963;51.444;6.528;2022-09-13T01:43:05;10.95;;;5.38;;
9848;SDS011;4963;51.444;6.528;2022-09-13T01:45:48;9.88;;;5.00;;
9848;SDS011;4963;51.444;6.528;2022-09-13T01:48:24;5.47;;;4.97;;
9848;SDS011;4963;51.444;6.528;2022-09-13T01:51:03;5.63;;;5.10;;
9848;SDS011;4963;51.444;6.528;2022-09-13T01:53:33;5.57;;;4.97;;
9848;SDS011;4963;51.444;6.528;2022-09-13T01:56:09;5.50;;;4.70;;
9848;SDS011;4963;51.444;6.528;2022-09-13T01:58:44;4.70;;;4.25;;
9848;SDS011;4963;51.444;6.528;2022-09-13T02:01:17;6.38;;;4.70;;
9848;SDS011;4963;51.444;6.528;2022-09-13T02:03:48;6.47;;;4.43;;
9848;SDS011;4963;51.444;6.528;2022-09-13T02:06:20;6.50;;;4.88;;
9848;SDS011;4963;51.444;6.528;2022-09-13T02:08:50;11.30;;;4.75;;
9848;SDS011;4963;51.444;6.528;2022-09-13T02:11:21;5.05;;;4.55;;
9848;SDS011;4963;51.444;6.528;2022-09-13T02:13:49;5.15;;;4.32;;
9848;SDS011;4963;51.444;6.528;2022-09-13T02:16:23;5.72;;;4.07;;
9848;SDS011;4963;51.444;6.528;2022-09-13T02:18:56;5.35;;;4.72;;
9848;SDS011;4963;51.444;6.528;2022-09-13T02:21:27;5.05;;;4.55;;
9848;SDS011;4963;51.444;6.528;2022-09-13T02:23:59;5.25;;;4.03;;
9848;SDS011;4963;51.444;6.528;2022-09-13T02:26:28;4.22;;;3.67;;
9848;SDS011;4963;51.444;6.528;2022-09-13T02:28:57;4.45;;;3.88;;
9848;SDS011;4963;51.444;6.528;2022-09-13T02:31:27;4.60;;;4.10;;
9848;SDS011;4963;51.444;6.528;2022-09-13T02:34:01;5.82;;;4.25;;
9848;SDS011;4963;51.444;6.528;2022-09-13T02:36:32;4.88;;;4.22;;
9848;SDS011;4963;51.444;6.528;2022-09-13T02:39:03;4.43;;;3.90;;
9848;SDS011;4963;51.444;6.528;2022-09-13T02:41:35;5.65;;;4.28;;
9848;SDS011;4963;51.444;6.528;2022-09-13T02:44:08;4.75;;;3.80;;
9848;SDS011;4963;51.444;6.528;2022-09-13T02:46:45;4.80;;;4.25;;
9848;SDS011;4963;51.444;6.528;2022-09-13T02:49:40;6.07;;;4.45;;
9848;SDS011;4963;51.444;6.528;2022-09-13T02:52:18;4.50;;;3.87;;
9848;SDS011;4963;51.444;6.528;2022-09-13T02:54:49;4.65;;;4.10;;
9848;SDS011;4963;51.444;6.528;2022-09-13T02:57:24;5.20;;;4.20;;
9848;SDS011;4963;51.444;6.528;2022-09-13T02:59:56;5.15;;;3.92;;
9848;SDS011;4963;51.444;6.528;2022-09-13T03:02:24;5.20;;;3.55;;
9848;SDS011;4963;51.444;6.528;2022-09-13T03:04:58;7.55;;;4.53;;
9848;SDS011;4963;51.444;6.528;2022-09-13T03:07:25;5.47;;;4.55;;
9848;SDS011;4963;51.444;6.528;2022-09-13T03:09:53;5.13;;;4.60;;
9848;SDS011;4963;51.444;6.528;2022-09-13T03:12:38;5.57;;;4.05;;
9848;SDS011;4963;51.444;6.528;2022-09-13T03:15:19;6.10;;;4.45;;
9848;SDS011;4963;51.444;6.528;2022-09-13T03:18:00;4.97;;;4.40;;
9848;SDS011;4963;51.444;6.528;2022-09-13T03:20:43;5.28;;;4.45;;
9848;SDS011;4963;51.444;6.528;2022-09-13T03:23:25;5.70;;;4.67;;
9848;SDS011;4963;51.444;6.528;2022-09-13T03:26:17;5.32;;;4.82;;
9848;SDS011;4963;51.444;6.528;2022-09-13T03:29:04;5.57;;;4.55;;
9848;SDS011;4963;51.444;6.528;2022-09-13T03:31:40;5.87;;;4.60;;
9848;SDS011;4963;51.444;6.528;2022-09-13T03:34:16;5.67;;;5.03;;
9848;SDS011;4963;51.444;6.528;2022-09-13T03:36:52;5.85;;;4.32;;
9848;SDS011;4963;51.444;6.528;2022-09-13T03:39:24;4.22;;;3.83;;
9848;SDS011;4963;51.444;6.528;2022-09-13T03:42:03;6.20;;;4.40;;
9848;SDS011;4963;51.444;6.528;2022-09-13T03:44:36;6.40;;;4.80;;
9848;SDS011;4963;51.444;6.528;2022-09-13T03:47:05;4.75;;;4.13;;
9848;SDS011;4963;51.444;6.528;2022-09-13T03:49:33;4.23;;;3.63;;
9848;SDS011;4963;51.444;6.528;2022-09-13T03:52:05;5.43;;;4.83;;
9848;SDS011;4963;51.444;6.528;2022-09-13T03:54:35;5.88;;;4.03;;
9848;SDS011;4963;51.444;6.528;2022-09-13T03:57:06;4.40;;;4.00;;
9848;SDS011;4963;51.444;6.528;2022-09-13T03:59:35;6.18;;;4.28;;
9848;SDS011;4963;51.444;6.528;2022-09-13T04:02:03;5.20;;;4.65;;
9848;SDS011;4963;51.444;6.528;2022-09-13T04:04:32;5.10;;;4.57;;
9848;SDS011;4963;51.444;6.528;2022-09-13T04:06:59;5.23;;;4.30;;
9848;SDS011;4963;51.444;6.528;2022-09-13T04:09:28;5.17;;;4.03;;
9848;SDS011;4963;51.444;6.528;2022-09-13T04:11:56;4.55;;;4.15;;
9848;SDS011;4963;51.444;6.528;2022-09-13T04:14:23;6.35;;;4.18;;
9848;SDS011;4963;51.444;6.528;2022-09-13T04:16:52;5.32;;;4.28;;
9848;SDS011;4963;51.444;6.528;2022-09-13T04:19:19;4.25;;;3.88;;
9848;SDS011;4963;51.444;6.528;2022-09-13T04:21:47;5.38;;;3.58;;
9848;SDS011;4963;51.444;6.528;2022-09-13T04:24:14;5.50;;;4.10;;
9848;SDS011;4963;51.444;6.528;2022-09-13T04:26:42;5.13;;;3.70;;
9848;SDS011;4963;51.444;6.528;2022-09-13T04:29:10;4.70;;;4.22;;
9848;SDS011;4963;51.444;6.528;2022-09-13T04:31:37;4.93;;;3.50;;
9848;SDS011;4963;51.444;6.528;2022-09-13T04:34:04;5.38;;;4.07;;
9848;SDS011;4963;51.444;6.528;2022-09-13T04:36:31;4.57;;;3.83;;
9848;SDS011;4963;51.444;6.528;2022-09-13T04:38:58;4.67;;;3.50;;
9848;SDS011;4963;51.444;6.528;2022-09-13T04:41:25;4.40;;;4.00;;
9848;SDS011;4963;51.444;6.528;2022-09-13T04:43:53;4.35;;;3.88;;
9848;SDS011;4963;51.444;6.528;2022-09-13T04:46:19;5.32;;;4.32;;
9848;SDS011;4963;51.444;6.528;2022-09-13T04:48:49;6.23;;;3.93;;
9848;SDS011;4963;51.444;6.528;2022-09-13T04:51:17;5.03;;;3.70;;
9848;SDS011;4963;51.444;6.528;2022-09-13T04:53:45;4.28;;;3.67;;
9848;SDS011;4963;51.444;6.528;2022-09-13T04:56:16;5.10;;;3.88;;
9848;SDS011;4963;51.444;6.528;2022-09-13T04:58:43;5.50;;;3.77;;
9848;SDS011;4963;51.444;6.528;2022-09-13T05:01:12;4.88;;;3.90;;
9848;SDS011;4963;51.444;6.528;2022-09-13T05:03:38;4.50;;;3.90;;
9848;SDS011;4963;51.444;6.528;2022-09-13T05:06:06;4.72;;;4.13;;
9848;SDS011;4963;51.444;6.528;2022-09-13T05:08:34;4.50;;;4.03;;
9848;SDS011;4963;51.444;6.528;2022-09-13T05:11:01;4.03;;;3.63;;
9848;SDS011;4963;51.444;6.528;2022-09-13T05:13:29;4.53;;;3.30;;
9848;SDS011;4963;51.444;6.528;2022-09-13T05:15:56;4.88;;;4.03;;
9848;SDS011;4963;51.444;6.528;2022-09-13T05:18:25;4.40;;;3.83;;
9848;SDS011;4963;51.444;6.528;2022-09-13T05:20:52;5.80;;;4.30;;
9848;SDS011;4963;51.444;6.528;2022-09-13T05:23:20;5.77;;;4.10;;
9848;SDS011;4963;51.444;6.528;2022-09-13T05:25:51;3.92;;;3.50;;
9848;SDS011;4963;51.444;6.528;2022-09-13T05:28:19;4.63;;;3.80;;
9848;SDS011;4963;51.444;6.528;2022-09-13T05:30:53;4.57;;;4.00;;
9848;SDS011;4963;51.444;6.528;2022-09-13T05:33:20;5.00;;;3.70;;
9848;SDS011;4963;51.444;6.528;2022-09-13T05:35:49;4.45;;;3.70;;
9848;SDS011;4963;51.444;6.528;2022-09-13T05:38:16;5.25;;;3.65;;
9848;SDS011;4963;51.444;6.528;2022-09-13T05:40:43;5.05;;;3.45;;
9848;SDS011;4963;51.444;6.528;2022-09-13T05:43:10;4.65;;;3.58;;
9848;SDS011;4963;51.444;6.528;2022-09-13T05:45:38;6.38;;;3.97;;
9848;SDS011;4963;51.444;6.528;2022-09-13T05:48:05;4.55;;;3.70;;
9848;SDS011;4963;51.444;6.528;2022-09-13T05:50:35;4.43;;;3.90;;
9848;SDS011;4963;51.444;6.528;2022-09-13T05:53:04;4.45;;;3.80;;
9848;SDS011;4963;51.444;6.528;2022-09-13T05:55:31;5.47;;;3.50;;
9848;SDS011;4963;51.444;6.528;2022-09-13T05:57:58;4.55;;;3.92;;
9848;SDS011;4963;51.444;6.528;2022-09-13T06:00:26;6.15;;;4.38;;
9848;SDS011;4963;51.444;6.528;2022-09-13T06:02:54;6.07;;;4.65;;
9848;SDS011;4963;51.444;6.528;2022-09-13T06:05:21;5.63;;;3.60;;
9848;SDS011;4963;51.444;6.528;2022-09-13T06:07:48;5.30;;;3.60;;
9848;SDS011;4963;51.444;6.528;2022-09-13T06:10:16;4.05;;;3.53;;
9848;SDS011;4963;51.444;6.528;2022-09-13T06:12:44;4.38;;;3.97;;
9848;SDS011;4963;51.444;6.528;2022-09-13T06:15:11;5.00;;;4.00;;
9848;SDS011;4963;51.444;6.528;2022-09-13T06:17:38;6.05;;;4.05;;
9848;SDS011;4963;51.444;6.528;2022-09-13T06:20:05;5.22;;;3.97;;
9848;SDS011;4963;51.444;6.528;2022-09-13T06:22:33;6.13;;;4.22;;
9848;SDS011;4963;51.444;6.528;2022-09-13T06:25:00;5.60;;;4.00;;
9848;SDS011;4963;51.444;6.528;2022-09-13T06:27:29;4.47;;;3.63;;
9848;SDS011;4963;51.444;6.528;2022-09-13T06:29:56;7.05;;;4.47;;
9848;SDS011;4963;51.444;6.528;2022-09-13T06:32:22;4.95;;;4.45;;
9848;SDS011;4963;51.444;6.528;2022-09-13T06:34:49;5.57;;;4.40;;
9848;SDS011;4963;51.444;6.528;2022-09-13T06:37:16;6.32;;;4.13;;
9848;SDS011;4963;51.444;6.528;2022-09-13T06:39:43;10.52;;;4.80;;
9848;SDS011;4963;51.444;6.528;2022-09-13T06:42:10;8.05;;;5.13;;
9848;SDS011;4963;51.444;6.528;2022-09-13T06:44:38;5.95;;;4.38;;
9848;SDS011;4963;51.444;6.528;2022-09-13T06:47:05;5.13;;;4.18;;
9848;SDS011;4963;51.444;6.528;2022-09-13T06:49:32;6.25;;;4.22;;
9848;SDS011;4963;51.444;6.528;2022-09-13T06:51:59;4.97;;;4.47;;
9848;SDS011;4963;51.444;6.528;2022-09-13T06:54:25;6.75;;;4.32;;
9848;SDS011;4963;51.444;6.528;2022-09-13T06:56:53;5.75;;;4.20;;
9848;SDS011;4963;51.444;6.528;2022-09-13T06:59:19;6.10;;;4.85;;
9848;SDS011;4963;51.444;6.528;2022-09-13T07:01:48;4.85;;;3.97;;
9848;SDS011;4963;51.444;6.528;2022-09-13T07:04:16;8.35;;;4.85;;
9848;SDS011;4963;51.444;6.528;2022-09-13T07:06:44;4.53;;;4.00;;
9848;SDS011;4963;51.444;6.528;2022-09-13T07:09:13;5.13;;;4.47;;
9848;SDS011;4963;51.444;6.528;2022-09-13T07:11:42;6.88;;;4.03;;
9848;SDS011;4963;51.444;6.528;2022-09-13T07:14:10;4.65;;;4.13;;
9848;SDS011;4963;51.444;6.528;2022-09-13T07:16:39;5.57;;;4.25;;
9848;SDS011;4963;51.444;6.528;2022-09-13T07:19:11;5.93;;;4.47;;
9848;SDS011;4963;51.444;6.528;2022-09-13T07:21:38;4.32;;;3.92;;
9848;SDS011;4963;51.444;6.528;2022-09-13T07:24:05;5.38;;;4.35;;
9848;SDS011;4963;51.444;6.528;2022-09-13T07:26:32;4.65;;;4.07;;
9848;SDS011;4963;51.444;6.528;2022-09-13T07:29:00;5.07;;;4.18;;
9848;SDS011;4963;51.444;6.528;2022-09-13T07:31:29;6.90;;;4.78;;
9848;SDS011;4963;51.444;6.528;2022-09-13T07:33:58;4.95;;;4.22;;
9848;SDS011;4963;51.444;6.528;2022-09-13T07:36:27;4.72;;;4.13;;
9848;SDS011;4963;51.444;6.528;2022-09-13T07:38:55;6.30;;;4.40;;
9848;SDS011;4963;51.444;6.528;2022-09-13T07:41:23;6.18;;;4.18;;
9848;SDS011;4963;51.444;6.528;2022-09-13T07:43:52;7.15;;;4.65;;
9848;SDS011;4963;51.444;6.528;2022-09-13T07:46:19;6.50;;;4.20;;
9848;SDS011;4963;51.444;6.528;2022-09-13T07:48:47;6.97;;;4.90;;
9848;SDS011;4963;51.444;6.528;2022-09-13T07:51:15;6.40;;;4.32;;
9848;SDS011;4963;51.444;6.528;2022-09-13T07:53:45;5.53;;;4.60;;
9848;SDS011;4963;51.444;6.528;2022-09-13T07:56:14;5.95;;;4.85;;
9848;SDS011;4963;51.444;6.528;2022-09-13T07:58:44;7.05;;;5.10;;
9848;SDS011;4963;51.444;6.528;2022-09-13T08:01:12;7.57;;;4.15;;
9848;SDS011;4963;51.444;6.528;2022-09-13T08:03:41;5.50;;;4.55;;
9848;SDS011;4963;51.444;6.528;2022-09-13T08:06:08;8.45;;;4.78;;
9848;SDS011;4963;51.444;6.528;2022-09-13T08:08:35;8.20;;;5.53;;
9848;SDS011;4963;51.444;6.528;2022-09-13T08:11:04;6.97;;;5.00;;
9848;SDS011;4963;51.444;6.528;2022-09-13T08:13:32;6.30;;;4.72;;
9848;SDS011;4963;51.444;6.528;2022-09-13T08:16:02;7.90;;;5.68;;
9848;SDS011;4963;51.444;6.528;2022-09-13T08:18:31;5.68;;;5.00;;
9848;SDS011;4963;51.444;6.528;2022-09-13T08:20:59;6.43;;;5.30;;
9848;SDS011;4963;51.444;6.528;2022-09-13T08:23:27;9.73;;;6.18;;
9848;SDS011;4963;51.444;6.528;2022-09-13T08:25:58;5.95;;;5.28;;
9848;SDS011;4963;51.444;6.528;2022-09-13T08:28:27;9.25;;;5.43;;
9848;SDS011;4963;51.444;6.528;2022-09-13T08:30:55;7.75;;;6.43;;
9848;SDS011;4963;51.444;6.528;2022-09-13T08:33:27;6.88;;;5.65;;
9848;SDS011;4963;51.444;6.528;2022-09-13T08:35:54;7.55;;;6.30;;
9848;SDS011;4963;51.444;6.528;2022-09-13T08:38:22;9.50;;;7.53;;
9848;SDS011;4963;51.444;6.528;2022-09-13T08:40:50;10.13;;;7.78;;
9848;SDS011;4963;51.444;6.528;2022-09-13T08:43:22;9.00;;;6.35;;
9848;SDS011;4963;51.444;6.528;2022-09-13T08:45:58;8.93;;;7.53;;
9848;SDS011;4963;51.444;6.528;2022-09-13T08:48:29;7.32;;;6.45;;
9848;SDS011;4963;51.444;6.528;2022-09-13T08:51:01;7.93;;;6.80;;
9848;SDS011;4963;51.444;6.528;2022-09-13T08:53:31;9.85;;;7.35;;
9848;SDS011;4963;51.444;6.528;2022-09-13T08:56:09;9.52;;;7.70;;
9848;SDS011;4963;51.444;6.528;2022-09-13T08:58:50;8.50;;;7.28;;
9848;SDS011;4963;51.444;6.528;2022-09-13T09:01:28;10.23;;;7.40;;
9848;SDS011;4963;51.444;6.528;2022-09-13T09:04:11;10.27;;;7.63;;
9848;SDS011;4963;51.444;6.528;2022-09-13T09:06:50;10.23;;;8.65;;
9848;SDS011;4963;51.444;6.528;2022-09-13T09:09:20;10.30;;;8.38;;
9848;SDS011;4963;51.444;6.528;2022-09-13T09:11:48;10.27;;;7.93;;
9848;SDS011;4963;51.444;6.528;2022-09-13T09:14:21;7.80;;;7.00;;
9848;SDS011;4963;51.444;6.528;2022-09-13T09:16:56;12.32;;;9.57;;
9848;SDS011;4963;51.444;6.528;2022-09-13T09:19:27;11.25;;;8.63;;
9848;SDS011;4963;51.444;6.528;2022-09-13T09:21:58;10.88;;;9.77;;
9848;SDS011;4963;51.444;6.528;2022-09-13T09:24:30;9.55;;;8.40;;
9848;SDS011;4963;51.444;6.528;2022-09-13T09:27:04;12.00;;;9.50;;
9848;SDS011;4963;51.444;6.528;2022-09-13T09:29:40;8.00;;;7.00;;
9848;SDS011;4963;51.444;6.528;2022-09-13T09:32:13;9.27;;;7.97;;
9848;SDS011;4963;51.444;6.528;2022-09-13T09:34:52;12.73;;;8.13;;
9848;SDS011;4963;51.444;6.528;2022-09-13T09:37:31;9.85;;;8.38;;
9848;SDS011;4963;51.444;6.528;2022-09-13T09:40:00;12.77;;;9.90;;
9848;SDS011;4963;51.444;6.528;2022-09-13T09:42:41;10.55;;;8.25;;
9848;SDS011;4963;51.444;6.528;2022-09-13T09:45:22;12.00;;;9.35;;
9848;SDS011;4963;51.444;6.528;2022-09-13T09:47:52;8.95;;;7.60;;
9848;SDS011;4963;51.444;6.528;2022-09-13T09:50:21;8.65;;;7.20;;
9848;SDS011;4963;51.444;6.528;2022-09-13T09:52:53;13.73;;;10.98;;
9848;SDS011;4963;51.444;6.528;2022-09-13T09:55:26;11.88;;;8.75;;
9848;SDS011;4963;51.444;6.528;2022-09-13T09:57:55;14.48;;;8.65;;
9848;SDS011;4963;51.444;6.528;2022-09-13T10:00:25;10.48;;;7.80;;
9848;SDS011;4963;51.444;6.528;2022-09-13T10:02:55;10.30;;;8.00;;
9848;SDS011;4963;51.444;6.528;2022-09-13T10:05:24;11.63;;;7.35;;
9848;SDS011;4963;51.444;6.528;2022-09-13T10:07:53;12.15;;;9.35;;
9848;SDS011;4963;51.444;6.528;2022-09-13T10:10:23;13.52;;;9.85;;
9848;SDS011;4963;51.444;6.528;2022-09-13T10:12:55;10.25;;;8.10;;
9848;SDS011;4963;51.444;6.528;2022-09-13T10:15:25;12.27;;;10.15;;
9848;SDS011;4963;51.444;6.528;2022-09-13T10:18:01;11.40;;;8.60;;
9848;SDS011;4963;51.444;6.528;2022-09-13T10:20:38;11.82;;;8.30;;
9848;SDS011;4963;51.444;6.528;2022-09-13T10:23:09;11.52;;;9.50;;
9848;SDS011;4963;51.444;6.528;2022-09-13T10:25:45;12.60;;;9.75;;
9848;SDS011;4963;51.444;6.528;2022-09-13T10:28:22;10.20;;;8.73;;
9848;SDS011;4963;51.444;6.528;2022-09-13T10:30:53;13.75;;;10.77;;
9848;SDS011;4963;51.444;6.528;2022-09-13T10:33:24;12.13;;;8.30;;
9848;SDS011;4963;51.444;6.528;2022-09-13T10:35:58;12.90;;;9.30;;
9848;SDS011;4963;51.444;6.528;2022-09-13T10:38:29;11.15;;;10.05;;
9848;SDS011;4963;51.444;6.528;2022-09-13T10:40:59;12.93;;;10.45;;
9848;SDS011;4963;51.444;6.528;2022-09-13T10:43:29;11.82;;;10.63;;
9848;SDS011;4963;51.444;6.528;2022-09-13T10:45:59;12.40;;;11.13;;
9848;SDS011;4963;51.444;6.528;2022-09-13T10:48:29;12.10;;;9.90;;
9848;SDS011;4963;51.444;6.528;2022-09-13T10:51:17;13.27;;;10.88;;
9848;SDS011;4963;51.444;6.528;2022-09-13T10:54:05;12.43;;;11.10;;
9848;SDS011;4963;51.444;6.528;2022-09-13T10:56:34;15.68;;;11.38;;
9848;SDS011;4963;51.444;6.528;2022-09-13T10:59:12;14.80;;;10.85;;
9848;SDS011;4963;51.444;6.528;2022-09-13T11:01:52;14.82;;;11.75;;
9848;SDS011;4963;51.444;6.528;2022-09-13T11:04:48;16.77;;;12.25;;
9848;SDS011;4963;51.444;6.528;2022-09-13T11:07:28;11.38;;;10.05;;
9848;SDS011;4963;51.444;6.528;2022-09-13T11:10:07;13.98;;;11.60;;
9848;SDS011;4963;51.444;6.528;2022-09-13T11:12:41;12.25;;;10.80;;
9848;SDS011;4963;51.444;6.528;2022-09-13T11:15:18;13.65;;;11.60;;
9848;SDS011;4963;51.444;6.528;2022-09-13T11:17:58;15.10;;;12.45;;
9848;SDS011;4963;51.444;6.528;2022-09-13T11:20:40;14.35;;;11.05;;
9848;SDS011;4963;51.444;6.528;2022-09-13T11:23:22;13.93;;;11.60;;
9848;SDS011;4963;51.444;6.528;2022-09-13T11:26:11;14.50;;;12.18;;
9848;SDS011;4963;51.444;6.528;2022-09-13T11:28:56;12.15;;;10.90;;
9848;SDS011;4963;51.444;6.528;2022-09-13T11:31:34;11.90;;;9.50;;
9848;SDS011;4963;51.444;6.528;2022-09-13T11:34:17;15.02;;;12.68;;
9848;SDS011;4963;51.444;6.528;2022-09-13T11:37:03;13.25;;;10.82;;
9848;SDS011;4963;51.444;6.528;2022-09-13T11:39:47;10.90;;;9.80;;
9848;SDS011;4963;51.444;6.528;2022-09-13T11:42:27;14.18;;;10.35;;
9848;SDS011;4963;51.444;6.528;2022-09-13T11:45:23;11.68;;;10.18;;
9848;SDS011;4963;51.444;6.528;2022-09-13T11:47:56;16.23;;;14.43;;
9848;SDS011;4963;51.444;6.528;2022-09-13T11:50:48;11.23;;;10.02;;
9848;SDS011;4963;51.444;6.528;2022-09-13T11:53:36;11.65;;;10.40;;
9848;SDS011;4963;51.444;6.528;2022-09-13T11:56:15;12.60;;;11.02;;
9848;SDS011;4963;51.444;6.528;2022-09-13T11:58:48;10.95;;;9.85;;
9848;SDS011;4963;51.444;6.528;2022-09-13T12:01:19;12.88;;;9.23;;
9848;SDS011;4963;51.444;6.528;2022-09-13T12:03:51;9.90;;;8.90;;
9848;SDS011;4963;51.444;6.528;2022-09-13T12:06:24;11.75;;;9.20;;
9848;SDS011;4963;51.444;6.528;2022-09-13T12:08:55;12.23;;;10.65;;
9848;SDS011;4963;51.444;6.528;2022-09-13T12:11:28;13.38;;;11.98;;
9848;SDS011;4963;51.444;6.528;2022-09-13T12:13:59;12.82;;;10.68;;
9848;SDS011;4963;51.444;6.528;2022-09-13T12:16:29;11.82;;;10.00;;
9848;SDS011;4963;51.444;6.528;2022-09-13T12:18:59;12.32;;;10.98;;
9848;SDS011;4963;51.444;6.528;2022-09-13T12:21:34;12.13;;;10.85;;
9848;SDS011;4963;51.444;6.528;2022-09-13T12:24:04;18.50;;;14.25;;
9848;SDS011;4963;51.444;6.528;2022-09-13T12:26:40;14.77;;;13.35;;
9848;SDS011;4963;51.444;6.528;2022-09-13T12:29:10;15.85;;;11.55;;
9848;SDS011;4963;51.444;6.528;2022-09-13T12:31:41;12.02;;;10.43;;
9848;SDS011;4963;51.444;6.528;2022-09-13T12:34:09;18.42;;;14.30;;
9848;SDS011;4963;51.444;6.528;2022-09-13T12:36:55;15.00;;;13.27;;
9848;SDS011;4963;51.444;6.528;2022-09-13T12:39:44;16.38;;;12.18;;
9848;SDS011;4963;51.444;6.528;2022-09-13T12:45:28;14.90;;;11.93;;
9848;SDS011;4963;51.444;6.528;2022-09-13T12:51:13;12.90;;;11.60;;
9848;SDS011;4963;51.444;6.528;2022-09-13T12:56:50;14.85;;;11.60;;
9848;SDS011;4963;51.444;6.528;2022-09-13T13:02:29;8.75;;;6.57;;
9848;SDS011;4963;51.444;6.528;2022-09-13T13:05:00;10.18;;;8.10;;
9848;SDS011;4963;51.444;6.528;2022-09-13T13:07:30;10.45;;;8.18;;
9848;SDS011;4963;51.444;6.528;2022-09-13T13:10:02;10.68;;;9.23;;
9848;SDS011;4963;51.444;6.528;2022-09-13T13:12:31;9.30;;;7.97;;
9848;SDS011;4963;51.444;6.528;2022-09-13T13:14:59;7.85;;;7.07;;
9848;SDS011;4963;51.444;6.528;2022-09-13T13:17:35;7.35;;;6.53;;
9848;SDS011;4963;51.444;6.528;2022-09-13T13:23:30;14.98;;;10.43;;
9848;SDS011;4963;51.444;6.528;2022-09-13T13:28:47;9.63;;;8.63;;
9848;SDS011;4963;51.444;6.528;2022-09-13T13:31:34;13.77;;;12.00;;
9848;SDS011;4963;51.444;6.528;2022-09-13T13:37:01;13.68;;;11.63;;
9848;SDS011;4963;51.444;6.528;2022-09-13T13:39:39;12.30;;;10.05;;
9848;SDS011;4963;51.444;6.528;2022-09-13T13:42:12;12.75;;;10.48;;
9848;SDS011;4963;51.444;6.528;2022-09-13T13:47:55;9.38;;;7.78;;
9848;SDS011;4963;51.444;6.528;2022-09-13T13:53:38;12.48;;;8.27;;
9848;SDS011;4963;51.444;6.528;2022-09-13T13:56:07;9.38;;;8.30;;
9848;SDS011;4963;51.444;6.528;2022-09-13T13:58:45;11.13;;;8.35;;
9848;SDS011;4963;51.444;6.528;2022-09-13T14:01:17;10.55;;;9.50;;
9848;SDS011;4963;51.444;6.528;2022-09-13T14:03:57;11.10;;;7.95;;
9848;SDS011;4963;51.444;6.528;2022-09-13T14:06:48;10.57;;;8.43;;
9848;SDS011;4963;51.444;6.528;2022-09-13T14:09:26;11.73;;;8.55;;
9848;SDS011;4963;51.444;6.528;2022-09-13T14:12:10;8.15;;;6.43;;
9848;SDS011;4963;51.444;6.528;2022-09-13T14:14:51;10.95;;;9.07;;
9848;SDS011;4963;51.444;6.528;2022-09-13T14:17:46;8.52;;;7.30;;
9848;SDS011;4963;51.444;6.528;2022-09-13T14:20:26;8.10;;;7.22;;
9848;SDS011;4963;51.444;6.528;2022-09-13T14:25:41;11.05;;;7.65;;
9848;SDS011;4963;51.444;6.528;2022-09-13T14:28:11;9.93;;;7.18;;
9848;SDS011;4963;51.444;6.528;2022-09-13T14:30:44;9.70;;;7.47;;
9848;SDS011;4963;51.444;6.528;2022-09-13T14:33:17;9.55;;;8.18;;
9848;SDS011;4963;51.444;6.528;2022-09-13T14:35:55;12.00;;;6.90;;
9848;SDS011;4963;51.444;6.528;2022-09-13T14:38:25;9.63;;;8.55;;
9848;SDS011;4963;51.444;6.528;2022-09-13T14:40:58;9.85;;;6.95;;
9848;SDS011;4963;51.444;6.528;2022-09-13T14:43:28;9.30;;;7.30;;
9848;SDS011;4963;51.444;6.528;2022-09-13T14:45:59;8.45;;;6.82;;
9848;SDS011;4963;51.444;6.528;2022-09-13T14:48:31;10.70;;;8.55;;
9848;SDS011;4963;51.444;6.528;2022-09-13T14:51:04;11.32;;;9.32;;
9848;SDS011;4963;51.444;6.528;2022-09-13T14:53:38;12.02;;;8.02;;
9848;SDS011;4963;51.444;6.528;2022-09-13T14:56:07;9.43;;;7.78;;
9848;SDS011;4963;51.444;6.528;2022-09-13T14:58:42;8.93;;;6.55;;
9848;SDS011;4963;51.444;6.528;2022-09-13T15:01:13;9.65;;;7.85;;
9848;SDS011;4963;51.444;6.528;2022-09-13T15:03:44;11.38;;;8.63;;
9848;SDS011;4963;51.444;6.528;2022-09-13T15:06:19;10.52;;;9.18;;
9848;SDS011;4963;51.444;6.528;2022-09-13T15:08:49;7.93;;;7.13;;
9848;SDS011;4963;51.444;6.528;2022-09-13T15:11:26;10.75;;;8.40;;
9848;SDS011;4963;51.444;6.528;2022-09-13T15:14:08;10.40;;;7.10;;
9848;SDS011;4963;51.444;6.528;2022-09-13T15:16:49;14.85;;;9.02;;
9848;SDS011;4963;51.444;6.528;2022-09-13T15:19:27;10.02;;;8.38;;
9848;SDS011;4963;51.444;6.528;2022-09-13T15:22:02;10.02;;;7.78;;
9848;SDS011;4963;51.444;6.528;2022-09-13T15:24:34;10.68;;;8.82;;
9848;SDS011;4963;51.444;6.528;2022-09-13T15:27:02;10.10;;;5.90;;
9848;SDS011;4963;51.444;6.528;2022-09-13T15:29:30;8.73;;;7.50;;
9848;SDS011;4963;51.444;6.528;2022-09-13T15:32:00;11.02;;;8.30;;
9848;SDS011;4963;51.444;6.528;2022-09-13T15:34:27;9.00;;;7.10;;
9848;SDS011;4963;51.444;6.528;2022-09-13T15:37:05;10.30;;;7.57;;
9848;SDS011;4963;51.444;6.528;2022-09-13T15:39:41;11.60;;;8.73;;
9848;SDS011;4963;51.444;6.528;2022-09-13T15:42:09;8.25;;;6.68;;
9848;SDS011;4963;51.444;6.528;2022-09-13T15:44:36;8.93;;;6.40;;
9848;SDS011;4963;51.444;6.528;2022-09-13T15:47:07;7.45;;;6.15;;
9848;SDS011;4963;51.444;6.528;2022-09-13T15:49:35;7.88;;;5.93;;
9848;SDS011;4963;51.444;6.528;2022-09-13T15:52:04;9.02;;;6.40;;
9848;SDS011;4963;51.444;6.528;2022-09-13T15:54:33;11.75;;;7.30;;
9848;SDS011;4963;51.444;6.528;2022-09-13T15:57:01;10.23;;;6.57;;
9848;SDS011;4963;51.444;6.528;2022-09-13T15:59:32;7.68;;;4.97;;
9848;SDS011;4963;51.444;6.528;2022-09-13T16:01:59;6.22;;;5.60;;
9848;SDS011;4963;51.444;6.528;2022-09-13T16:04:28;7.22;;;5.13;;
9848;SDS011;4963;51.444;6.528;2022-09-13T16:06:55;8.00;;;5.90;;
9848;SDS011;4963;51.444;6.528;2022-09-13T16:09:23;7.03;;;5.30;;
9848;SDS011;4963;51.444;6.528;2022-09-13T16:11:51;7.25;;;5.32;;
9848;SDS011;4963;51.444;6.528;2022-09-13T16:14:18;6.78;;;5.90;;
9848;SDS011;4963;51.444;6.528;2022-09-13T16:16:46;5.55;;;5.05;;
9848;SDS011;4963;51.444;6.528;2022-09-13T16:19:13;6.35;;;5.03;;